sensor_id;sensor_type;location;lat;lon;timestamp;P1;durP1;ratioP1;P2;durP2;ratioP2
53267;SDS011;39156;51.176;6.738;2023-06-22T00:01:11;32.38;;;30.48;;
53267;SDS011;39156;51.176;6.738;2023-06-22T00:03:36;34.80;;;32.53;;
53267;SDS011;39156;51.176;6.738;2023-06-22T00:06:02;33.73;;;31.77;;
53267;SDS011;39156;51.176;6.738;2023-06-22T00:08:28;33.53;;;31.67;;
53267;SDS011;39156;51.176;6.738;2023-06-22T00:10:54;31.13;;;29.53;;
53267;SDS011;39156;51.176;6.738;2023-06-22T00:13:19;33.20;;;31.40;;
53267;SDS011;39156;51.176;6.738;2023-06-22T00:15:45;32.60;;;30.83;;
53267;SDS011;39156;51.176;6.738;2023-06-22T00:18:11;33.20;;;31.40;;
53267;SDS011;39156;51.176;6.738;2023-06-22T00:20:38;33.40;;;31.55;;
53267;SDS011;39156;51.176;6.738;2023-06-22T00:25:34;32.65;;;30.85;;
53267;SDS011;39156;51.176;6.738;2023-06-22T00:28:02;34.85;;;32.85;;
53267;SDS011;39156;51.176;6.738;2023-06-22T00:30:28;34.30;;;32.40;;
53267;SDS011;39156;51.176;6.738;2023-06-22T00:32:55;32.83;;;30.88;;
53267;SDS011;39156;51.176;6.738;2023-06-22T00:35:21;34.63;;;32.63;;
53267;SDS011;39156;51.176;6.738;2023-06-22T00:37:47;32.20;;;30.48;;
53267;SDS011;39156;51.176;6.738;2023-06-22T00:40:12;33.90;;;32.07;;
53267;SDS011;39156;51.176;6.738;2023-06-22T00:42:39;34.13;;;32.20;;
53267;SDS011;39156;51.176;6.738;2023-06-22T00:45:06;31.85;;;30.13;;
53267;SDS011;39156;51.176;6.738;2023-06-22T00:47:35;34.72;;;32.83;;
53267;SDS011;39156;51.176;6.738;2023-06-22T00:50:02;32.83;;;31.02;;
53267;SDS011;39156;51.176;6.738;2023-06-22T00:52:31;33.47;;;31.67;;
53267;SDS011;39156;51.176;6.738;2023-06-22T00:55:00;34.60;;;32.63;;
53267;SDS011;39156;51.176;6.738;2023-06-22T00:57:27;31.85;;;30.05;;
53267;SDS011;39156;51.176;6.738;2023-06-22T00:59:53;32.40;;;30.60;;
53267;SDS011;39156;51.176;6.738;2023-06-22T01:02:19;34.53;;;32.38;;
53267;SDS011;39156;51.176;6.738;2023-06-22T01:04:45;32.08;;;29.98;;
53267;SDS011;39156;51.176;6.738;2023-06-22T01:07:19;34.28;;;32.38;;
53267;SDS011;39156;51.176;6.738;2023-06-22T01:10:20;32.47;;;30.65;;
53267;SDS011;39156;51.176;6.738;2023-06-22T01:13:07;34.28;;;32.35;;
53267;SDS011;39156;51.176;6.738;2023-06-22T01:15:53;32.45;;;30.60;;
53267;SDS011;39156;51.176;6.738;2023-06-22T01:18:44;32.58;;;30.77;;
53267;SDS011;39156;51.176;6.738;2023-06-22T01:21:14;32.80;;;31.00;;
53267;SDS011;39156;51.176;6.738;2023-06-22T01:26:54;34.60;;;32.60;;
53267;SDS011;39156;51.176;6.738;2023-06-22T01:29:38;33.55;;;31.65;;
53267;SDS011;39156;51.176;6.738;2023-06-22T01:32:05;34.38;;;32.47;;
53267;SDS011;39156;51.176;6.738;2023-06-22T01:34:32;34.55;;;32.55;;
53267;SDS011;39156;51.176;6.738;2023-06-22T01:36:59;33.10;;;31.30;;
53267;SDS011;39156;51.176;6.738;2023-06-22T01:39:27;32.75;;;30.95;;
53267;SDS011;39156;51.176;6.738;2023-06-22T01:41:53;33.75;;;31.95;;
53267;SDS011;39156;51.176;6.738;2023-06-22T01:44:19;34.80;;;32.17;;
53267;SDS011;39156;51.176;6.738;2023-06-22T01:46:46;34.00;;;31.70;;
53267;SDS011;39156;51.176;6.738;2023-06-22T01:49:14;35.47;;;33.47;;
53267;SDS011;39156;51.176;6.738;2023-06-22T01:51:40;35.08;;;33.08;;
53267;SDS011;39156;51.176;6.738;2023-06-22T01:54:06;35.10;;;33.17;;
53267;SDS011;39156;51.176;6.738;2023-06-22T01:56:33;35.83;;;33.72;;
53267;SDS011;39156;51.176;6.738;2023-06-22T02:01:28;34.78;;;32.83;;
53267;SDS011;39156;51.176;6.738;2023-06-22T02:04:11;35.10;;;33.00;;
53267;SDS011;39156;51.176;6.738;2023-06-22T02:06:45;34.58;;;32.72;;
53267;SDS011;39156;51.176;6.738;2023-06-22T02:09:14;33.63;;;31.83;;
53267;SDS011;39156;51.176;6.738;2023-06-22T02:11:43;34.38;;;32.38;;
53267;SDS011;39156;51.176;6.738;2023-06-22T02:14:12;36.20;;;34.15;;
53267;SDS011;39156;51.176;6.738;2023-06-22T02:16:38;34.28;;;32.28;;
53267;SDS011;39156;51.176;6.738;2023-06-22T02:19:05;35.35;;;33.35;;
53267;SDS011;39156;51.176;6.738;2023-06-22T02:21:31;34.72;;;32.75;;
53267;SDS011;39156;51.176;6.738;2023-06-22T02:23:57;33.80;;;31.90;;
53267;SDS011;39156;51.176;6.738;2023-06-22T02:26:24;33.95;;;32.00;;
53267;SDS011;39156;51.176;6.738;2023-06-22T02:28:51;33.50;;;31.60;;
53267;SDS011;39156;51.176;6.738;2023-06-22T02:31:17;34.33;;;32.42;;
53267;SDS011;39156;51.176;6.738;2023-06-22T02:33:43;34.40;;;32.40;;
53267;SDS011;39156;51.176;6.738;2023-06-22T02:36:09;35.15;;;33.22;;
53267;SDS011;39156;51.176;6.738;2023-06-22T02:38:38;35.83;;;33.72;;
53267;SDS011;39156;51.176;6.738;2023-06-22T02:41:13;35.95;;;33.85;;
53267;SDS011;39156;51.176;6.738;2023-06-22T02:43:43;34.70;;;32.80;;
53267;SDS011;39156;51.176;6.738;2023-06-22T02:46:13;35.35;;;33.33;;
53267;SDS011;39156;51.176;6.738;2023-06-22T02:48:39;36.17;;;33.92;;
53267;SDS011;39156;51.176;6.738;2023-06-22T02:53:31;37.55;;;35.25;;
53267;SDS011;39156;51.176;6.738;2023-06-22T02:55:57;35.28;;;33.25;;
53267;SDS011;39156;51.176;6.738;2023-06-22T02:58:23;34.90;;;32.90;;
53267;SDS011;39156;51.176;6.738;2023-06-22T03:00:49;33.90;;;31.97;;
53267;SDS011;39156;51.176;6.738;2023-06-22T03:03:18;34.13;;;32.10;;
53267;SDS011;39156;51.176;6.738;2023-06-22T03:05:44;34.60;;;32.50;;
53267;SDS011;39156;51.176;6.738;2023-06-22T03:08:10;35.03;;;33.03;;
53267;SDS011;39156;51.176;6.738;2023-06-22T03:10:35;36.53;;;34.33;;
53267;SDS011;39156;51.176;6.738;2023-06-22T03:13:02;35.70;;;33.70;;
53267;SDS011;39156;51.176;6.738;2023-06-22T03:15:28;34.53;;;32.53;;
53267;SDS011;39156;51.176;6.738;2023-06-22T03:17:57;35.53;;;33.45;;
53267;SDS011;39156;51.176;6.738;2023-06-22T03:20:23;33.77;;;31.77;;
53267;SDS011;39156;51.176;6.738;2023-06-22T03:22:50;37.78;;;35.38;;
53267;SDS011;39156;51.176;6.738;2023-06-22T03:25:15;36.50;;;34.40;;
53267;SDS011;39156;51.176;6.738;2023-06-22T03:27:41;37.33;;;35.17;;
53267;SDS011;39156;51.176;6.738;2023-06-22T03:30:09;35.55;;;33.35;;
53267;SDS011;39156;51.176;6.738;2023-06-22T03:32:37;37.47;;;35.10;;
53267;SDS011;39156;51.176;6.738;2023-06-22T03:35:03;36.78;;;34.47;;
53267;SDS011;39156;51.176;6.738;2023-06-22T03:37:29;35.83;;;33.67;;
53267;SDS011;39156;51.176;6.738;2023-06-22T03:39:54;35.63;;;33.53;;
53267;SDS011;39156;51.176;6.738;2023-06-22T03:42:20;34.90;;;32.93;;
53267;SDS011;39156;51.176;6.738;2023-06-22T03:44:46;37.67;;;35.40;;
53267;SDS011;39156;51.176;6.738;2023-06-22T03:47:12;39.58;;;37.08;;
53267;SDS011;39156;51.176;6.738;2023-06-22T03:49:38;36.95;;;34.80;;
53267;SDS011;39156;51.176;6.738;2023-06-22T03:52:04;37.67;;;35.00;;
53267;SDS011;39156;51.176;6.738;2023-06-22T03:56:56;38.28;;;35.97;;
53267;SDS011;39156;51.176;6.738;2023-06-22T03:59:23;36.67;;;34.28;;
53267;SDS011;39156;51.176;6.738;2023-06-22T04:01:49;35.67;;;33.67;;
53267;SDS011;39156;51.176;6.738;2023-06-22T04:04:15;35.80;;;33.70;;
53267;SDS011;39156;51.176;6.738;2023-06-22T04:06:42;37.10;;;34.97;;
53267;SDS011;39156;51.176;6.738;2023-06-22T04:09:08;34.90;;;32.90;;
53267;SDS011;39156;51.176;6.738;2023-06-22T04:11:33;36.13;;;34.00;;
53267;SDS011;39156;51.176;6.738;2023-06-22T04:13:59;35.70;;;33.53;;
53267;SDS011;39156;51.176;6.738;2023-06-22T04:16:25;38.30;;;36.07;;
53267;SDS011;39156;51.176;6.738;2023-06-22T04:18:51;35.53;;;33.53;;
53267;SDS011;39156;51.176;6.738;2023-06-22T04:21:16;36.93;;;34.70;;
53267;SDS011;39156;51.176;6.738;2023-06-22T04:23:44;36.88;;;34.53;;
53267;SDS011;39156;51.176;6.738;2023-06-22T04:26:11;35.53;;;33.38;;
53267;SDS011;39156;51.176;6.738;2023-06-22T04:28:38;36.10;;;34.08;;
53267;SDS011;39156;51.176;6.738;2023-06-22T04:31:04;35.85;;;33.67;;
53267;SDS011;39156;51.176;6.738;2023-06-22T04:33:30;35.90;;;33.53;;
53267;SDS011;39156;51.176;6.738;2023-06-22T04:35:56;35.97;;;33.67;;
53267;SDS011;39156;51.176;6.738;2023-06-22T04:40:49;36.75;;;34.42;;
53267;SDS011;39156;51.176;6.738;2023-06-22T04:45:41;36.58;;;34.17;;
53267;SDS011;39156;51.176;6.738;2023-06-22T04:48:07;34.97;;;32.90;;
53267;SDS011;39156;51.176;6.738;2023-06-22T04:50:34;36.03;;;33.92;;
53267;SDS011;39156;51.176;6.738;2023-06-22T04:53:04;35.47;;;33.38;;
53267;SDS011;39156;51.176;6.738;2023-06-22T04:55:30;36.97;;;34.35;;
53267;SDS011;39156;51.176;6.738;2023-06-22T04:57:57;35.15;;;33.00;;
53267;SDS011;39156;51.176;6.738;2023-06-22T05:00:29;36.33;;;34.13;;
53267;SDS011;39156;51.176;6.738;2023-06-22T05:05:23;33.83;;;31.92;;
53267;SDS011;39156;51.176;6.738;2023-06-22T05:10:17;36.67;;;33.88;;
53267;SDS011;39156;51.176;6.738;2023-06-22T05:12:45;35.55;;;33.25;;
53267;SDS011;39156;51.176;6.738;2023-06-22T05:15:11;36.65;;;34.60;;
53267;SDS011;39156;51.176;6.738;2023-06-22T05:17:37;35.63;;;33.43;;
53267;SDS011;39156;51.176;6.738;2023-06-22T05:20:08;33.95;;;31.95;;
53267;SDS011;39156;51.176;6.738;2023-06-22T05:22:37;34.72;;;32.42;;
53267;SDS011;39156;51.176;6.738;2023-06-22T05:25:05;35.15;;;33.03;;
53267;SDS011;39156;51.176;6.738;2023-06-22T05:27:34;35.78;;;33.47;;
53267;SDS011;39156;51.176;6.738;2023-06-22T05:30:05;34.80;;;32.67;;
53267;SDS011;39156;51.176;6.738;2023-06-22T05:32:32;35.25;;;32.95;;
53267;SDS011;39156;51.176;6.738;2023-06-22T05:34:58;34.53;;;32.42;;
53267;SDS011;39156;51.176;6.738;2023-06-22T05:37:24;34.92;;;32.72;;
53267;SDS011;39156;51.176;6.738;2023-06-22T05:39:50;33.88;;;31.88;;
53267;SDS011;39156;51.176;6.738;2023-06-22T05:42:16;35.85;;;33.55;;
53267;SDS011;39156;51.176;6.738;2023-06-22T05:44:42;34.90;;;32.90;;
53267;SDS011;39156;51.176;6.738;2023-06-22T05:47:08;34.70;;;32.63;;
53267;SDS011;39156;51.176;6.738;2023-06-22T05:49:33;35.83;;;33.53;;
53267;SDS011;39156;51.176;6.738;2023-06-22T05:51:59;33.67;;;31.60;;
53267;SDS011;39156;51.176;6.738;2023-06-22T05:54:26;36.72;;;34.60;;
53267;SDS011;39156;51.176;6.738;2023-06-22T05:56:53;34.10;;;32.00;;
53267;SDS011;39156;51.176;6.738;2023-06-22T05:59:19;34.85;;;32.70;;
53267;SDS011;39156;51.176;6.738;2023-06-22T06:01:44;35.97;;;33.45;;
53267;SDS011;39156;51.176;6.738;2023-06-22T06:04:14;35.80;;;33.67;;
53267;SDS011;39156;51.176;6.738;2023-06-22T06:06:42;35.78;;;33.58;;
53267;SDS011;39156;51.176;6.738;2023-06-22T06:09:08;37.30;;;35.00;;
53267;SDS011;39156;51.176;6.738;2023-06-22T06:11:33;34.90;;;32.57;;
53267;SDS011;39156;51.176;6.738;2023-06-22T06:13:59;35.20;;;32.47;;
53267;SDS011;39156;51.176;6.738;2023-06-22T06:16:25;35.25;;;33.05;;
53267;SDS011;39156;51.176;6.738;2023-06-22T06:18:50;35.63;;;32.43;;
53267;SDS011;39156;51.176;6.738;2023-06-22T06:21:18;35.17;;;32.88;;
53267;SDS011;39156;51.176;6.738;2023-06-22T06:23:44;33.77;;;31.77;;
53267;SDS011;39156;51.176;6.738;2023-06-22T06:26:09;33.87;;;31.50;;
53267;SDS011;39156;51.176;6.738;2023-06-22T06:28:35;34.43;;;32.30;;
53267;SDS011;39156;51.176;6.738;2023-06-22T06:31:01;32.93;;;30.83;;
53267;SDS011;39156;51.176;6.738;2023-06-22T06:33:26;34.97;;;32.77;;
53267;SDS011;39156;51.176;6.738;2023-06-22T06:35:52;35.72;;;33.70;;
53267;SDS011;39156;51.176;6.738;2023-06-22T06:38:18;35.13;;;32.83;;
53267;SDS011;39156;51.176;6.738;2023-06-22T06:40:43;36.20;;;33.83;;
53267;SDS011;39156;51.176;6.738;2023-06-22T06:43:10;34.83;;;32.50;;
53267;SDS011;39156;51.176;6.738;2023-06-22T06:45:35;37.03;;;34.57;;
53267;SDS011;39156;51.176;6.738;2023-06-22T06:48:01;34.63;;;32.23;;
53267;SDS011;39156;51.176;6.738;2023-06-22T06:50:27;34.47;;;32.47;;
53267;SDS011;39156;51.176;6.738;2023-06-22T06:52:53;36.45;;;33.47;;
53267;SDS011;39156;51.176;6.738;2023-06-22T06:55:19;37.80;;;35.40;;
53267;SDS011;39156;51.176;6.738;2023-06-22T06:57:45;34.60;;;32.50;;
53267;SDS011;39156;51.176;6.738;2023-06-22T07:00:13;34.65;;;32.45;;
53267;SDS011;39156;51.176;6.738;2023-06-22T07:02:41;34.55;;;32.35;;
53267;SDS011;39156;51.176;6.738;2023-06-22T07:05:09;36.05;;;33.75;;
53267;SDS011;39156;51.176;6.738;2023-06-22T07:07:36;38.00;;;35.55;;
53267;SDS011;39156;51.176;6.738;2023-06-22T07:10:02;36.53;;;34.22;;
53267;SDS011;39156;51.176;6.738;2023-06-22T07:12:29;35.95;;;33.58;;
53267;SDS011;39156;51.176;6.738;2023-06-22T07:14:57;35.42;;;33.42;;
53267;SDS011;39156;51.176;6.738;2023-06-22T07:17:33;38.53;;;36.22;;
53267;SDS011;39156;51.176;6.738;2023-06-22T07:19:59;35.17;;;32.88;;
53267;SDS011;39156;51.176;6.738;2023-06-22T07:22:26;37.35;;;34.38;;
53267;SDS011;39156;51.176;6.738;2023-06-22T07:24:52;35.77;;;33.47;;
53267;SDS011;39156;51.176;6.738;2023-06-22T07:27:17;35.23;;;33.13;;
53267;SDS011;39156;51.176;6.738;2023-06-22T07:29:44;36.85;;;34.60;;
53267;SDS011;39156;51.176;6.738;2023-06-22T07:32:10;35.28;;;33.17;;
53267;SDS011;39156;51.176;6.738;2023-06-22T07:34:36;37.50;;;35.20;;
53267;SDS011;39156;51.176;6.738;2023-06-22T07:37:02;37.67;;;35.10;;
53267;SDS011;39156;51.176;6.738;2023-06-22T07:39:29;37.35;;;34.95;;
53267;SDS011;39156;51.176;6.738;2023-06-22T07:41:55;36.22;;;33.92;;
53267;SDS011;39156;51.176;6.738;2023-06-22T07:44:21;38.37;;;35.87;;
53267;SDS011;39156;51.176;6.738;2023-06-22T07:46:46;35.47;;;33.27;;
53267;SDS011;39156;51.176;6.738;2023-06-22T07:49:12;36.77;;;34.10;;
53267;SDS011;39156;51.176;6.738;2023-06-22T07:51:38;36.17;;;33.87;;
53267;SDS011;39156;51.176;6.738;2023-06-22T07:54:03;37.28;;;34.92;;
53267;SDS011;39156;51.176;6.738;2023-06-22T07:56:29;34.25;;;32.15;;
53267;SDS011;39156;51.176;6.738;2023-06-22T07:58:55;34.28;;;32.08;;
53267;SDS011;39156;51.176;6.738;2023-06-22T08:01:23;34.85;;;32.70;;
53267;SDS011;39156;51.176;6.738;2023-06-22T08:03:49;32.78;;;30.58;;
53267;SDS011;39156;51.176;6.738;2023-06-22T08:06:15;33.47;;;31.02;;
53267;SDS011;39156;51.176;6.738;2023-06-22T08:08:41;33.38;;;31.08;;
53267;SDS011;39156;51.176;6.738;2023-06-22T08:11:07;32.05;;;30.10;;
53267;SDS011;39156;51.176;6.738;2023-06-22T08:13:34;31.13;;;29.23;;
53267;SDS011;39156;51.176;6.738;2023-06-22T08:16:00;31.33;;;29.42;;
53267;SDS011;39156;51.176;6.738;2023-06-22T08:18:25;31.35;;;29.45;;
53267;SDS011;39156;51.176;6.738;2023-06-22T08:20:51;31.35;;;29.45;;
53267;SDS011;39156;51.176;6.738;2023-06-22T08:23:17;30.98;;;28.98;;
53267;SDS011;39156;51.176;6.738;2023-06-22T08:25:43;31.45;;;29.33;;
53267;SDS011;39156;51.176;6.738;2023-06-22T08:28:08;30.45;;;28.70;;
53267;SDS011;39156;51.176;6.738;2023-06-22T08:30:34;31.42;;;29.63;;
53267;SDS011;39156;51.176;6.738;2023-06-22T08:33:00;31.42;;;29.58;;
53267;SDS011;39156;51.176;6.738;2023-06-22T08:37:51;31.63;;;29.67;;
53267;SDS011;39156;51.176;6.738;2023-06-22T08:40:19;31.30;;;29.60;;
53267;SDS011;39156;51.176;6.738;2023-06-22T08:42:45;32.47;;;30.38;;
53267;SDS011;39156;51.176;6.738;2023-06-22T08:45:12;31.50;;;29.60;;
53267;SDS011;39156;51.176;6.738;2023-06-22T08:47:39;31.88;;;29.55;;
53267;SDS011;39156;51.176;6.738;2023-06-22T08:50:09;30.60;;;28.85;;
53267;SDS011;39156;51.176;6.738;2023-06-22T08:52:36;30.55;;;28.77;;
53267;SDS011;39156;51.176;6.738;2023-06-22T08:55:02;31.38;;;29.58;;
53267;SDS011;39156;51.176;6.738;2023-06-22T08:57:29;29.83;;;28.02;;
53267;SDS011;39156;51.176;6.738;2023-06-22T08:59:55;30.25;;;28.45;;
53267;SDS011;39156;51.176;6.738;2023-06-22T09:02:27;29.65;;;27.85;;
53267;SDS011;39156;51.176;6.738;2023-06-22T09:04:56;30.05;;;28.15;;
53267;SDS011;39156;51.176;6.738;2023-06-22T09:07:22;29.73;;;27.73;;
53267;SDS011;39156;51.176;6.738;2023-06-22T09:09:49;29.70;;;27.80;;
53267;SDS011;39156;51.176;6.738;2023-06-22T09:12:16;29.88;;;28.02;;
53267;SDS011;39156;51.176;6.738;2023-06-22T09:14:44;29.60;;;27.90;;
53267;SDS011;39156;51.176;6.738;2023-06-22T09:17:12;29.42;;;27.83;;
53267;SDS011;39156;51.176;6.738;2023-06-22T09:19:38;29.17;;;27.58;;
53267;SDS011;39156;51.176;6.738;2023-06-22T09:22:04;28.80;;;27.15;;
53267;SDS011;39156;51.176;6.738;2023-06-22T09:24:31;30.20;;;28.20;;
53267;SDS011;39156;51.176;6.738;2023-06-22T09:26:57;29.70;;;27.90;;
53267;SDS011;39156;51.176;6.738;2023-06-22T09:29:23;30.05;;;28.35;;
53267;SDS011;39156;51.176;6.738;2023-06-22T09:31:48;29.80;;;28.10;;
53267;SDS011;39156;51.176;6.738;2023-06-22T09:34:14;29.48;;;27.85;;
53267;SDS011;39156;51.176;6.738;2023-06-22T09:36:41;29.55;;;27.85;;
53267;SDS011;39156;51.176;6.738;2023-06-22T09:39:06;28.90;;;27.33;;
53267;SDS011;39156;51.176;6.738;2023-06-22T09:41:32;29.25;;;27.65;;
53267;SDS011;39156;51.176;6.738;2023-06-22T09:43:58;28.95;;;27.15;;
53267;SDS011;39156;51.176;6.738;2023-06-22T09:46:23;29.60;;;28.00;;
53267;SDS011;39156;51.176;6.738;2023-06-22T09:48:52;28.85;;;27.25;;
53267;SDS011;39156;51.176;6.738;2023-06-22T09:51:18;28.45;;;26.95;;
53267;SDS011;39156;51.176;6.738;2023-06-22T09:53:48;29.15;;;27.48;;
53267;SDS011;39156;51.176;6.738;2023-06-22T09:56:15;29.55;;;27.88;;
53267;SDS011;39156;51.176;6.738;2023-06-22T09:58:44;28.95;;;27.35;;
53267;SDS011;39156;51.176;6.738;2023-06-22T10:01:11;28.42;;;26.90;;
53267;SDS011;39156;51.176;6.738;2023-06-22T10:03:39;29.23;;;27.63;;
53267;SDS011;39156;51.176;6.738;2023-06-22T10:06:06;29.52;;;27.70;;
53267;SDS011;39156;51.176;6.738;2023-06-22T10:08:32;29.77;;;28.17;;
53267;SDS011;39156;51.176;6.738;2023-06-22T10:10:58;30.50;;;28.80;;
53267;SDS011;39156;51.176;6.738;2023-06-22T10:13:24;30.40;;;28.80;;
53267;SDS011;39156;51.176;6.738;2023-06-22T10:15:50;29.60;;;28.00;;
53267;SDS011;39156;51.176;6.738;2023-06-22T10:18:17;29.95;;;28.27;;
53267;SDS011;39156;51.176;6.738;2023-06-22T10:20:45;30.50;;;28.80;;
53267;SDS011;39156;51.176;6.738;2023-06-22T10:23:16;31.48;;;29.52;;
53267;SDS011;39156;51.176;6.738;2023-06-22T10:25:42;30.58;;;28.67;;
53267;SDS011;39156;51.176;6.738;2023-06-22T10:30:33;30.63;;;28.92;;
53267;SDS011;39156;51.176;6.738;2023-06-22T10:35:25;30.95;;;29.02;;
53267;SDS011;39156;51.176;6.738;2023-06-22T10:40:16;30.92;;;29.17;;
53267;SDS011;39156;51.176;6.738;2023-06-22T10:42:43;32.08;;;30.05;;
53267;SDS011;39156;51.176;6.738;2023-06-22T10:47:35;31.92;;;29.85;;
53267;SDS011;39156;51.176;6.738;2023-06-22T10:50:02;32.15;;;30.23;;
53267;SDS011;39156;51.176;6.738;2023-06-22T10:52:28;33.33;;;31.23;;
53267;SDS011;39156;51.176;6.738;2023-06-22T10:54:54;32.35;;;30.35;;
53267;SDS011;39156;51.176;6.738;2023-06-22T10:57:19;32.45;;;30.58;;
53267;SDS011;39156;51.176;6.738;2023-06-22T10:59:46;33.17;;;31.13;;
53267;SDS011;39156;51.176;6.738;2023-06-22T11:02:12;33.70;;;31.60;;
53267;SDS011;39156;51.176;6.738;2023-06-22T11:04:38;34.35;;;32.00;;
53267;SDS011;39156;51.176;6.738;2023-06-22T11:07:03;35.20;;;32.80;;
53267;SDS011;39156;51.176;6.738;2023-06-22T11:11:56;55.58;;;36.78;;
53267;SDS011;39156;51.176;6.738;2023-06-22T11:14:23;35.05;;;32.17;;
53267;SDS011;39156;51.176;6.738;2023-06-22T11:16:49;35.00;;;32.70;;
53267;SDS011;39156;51.176;6.738;2023-06-22T11:19:15;34.17;;;31.98;;
53267;SDS011;39156;51.176;6.738;2023-06-22T11:21:41;34.05;;;31.85;;
53267;SDS011;39156;51.176;6.738;2023-06-22T11:24:06;33.58;;;31.60;;
53267;SDS011;39156;51.176;6.738;2023-06-22T11:26:32;34.60;;;32.60;;
53267;SDS011;39156;51.176;6.738;2023-06-22T11:28:58;35.22;;;33.03;;
53267;SDS011;39156;51.176;6.738;2023-06-22T11:31:24;35.85;;;33.70;;
53267;SDS011;39156;51.176;6.738;2023-06-22T11:33:50;35.00;;;32.90;;
53267;SDS011;39156;51.176;6.738;2023-06-22T11:36:16;36.22;;;33.85;;
53267;SDS011;39156;51.176;6.738;2023-06-22T11:38:42;39.20;;;36.63;;
53267;SDS011;39156;51.176;6.738;2023-06-22T11:41:08;37.97;;;35.58;;
53267;SDS011;39156;51.176;6.738;2023-06-22T11:43:35;39.30;;;36.80;;
53267;SDS011;39156;51.176;6.738;2023-06-22T11:46:04;38.58;;;35.85;;
53267;SDS011;39156;51.176;6.738;2023-06-22T11:48:30;39.78;;;37.30;;
53267;SDS011;39156;51.176;6.738;2023-06-22T11:50:56;38.10;;;35.60;;
53267;SDS011;39156;51.176;6.738;2023-06-22T11:53:23;40.00;;;37.47;;
53267;SDS011;39156;51.176;6.738;2023-06-22T11:55:51;39.05;;;36.47;;
53267;SDS011;39156;51.176;6.738;2023-06-22T11:58:17;38.75;;;36.08;;
53267;SDS011;39156;51.176;6.738;2023-06-22T12:00:43;40.38;;;37.55;;
53267;SDS011;39156;51.176;6.738;2023-06-22T12:05:36;40.83;;;38.17;;
53267;SDS011;39156;51.176;6.738;2023-06-22T12:08:02;38.70;;;36.30;;
53267;SDS011;39156;51.176;6.738;2023-06-22T12:10:27;39.17;;;36.58;;
53267;SDS011;39156;51.176;6.738;2023-06-22T12:12:53;38.97;;;36.45;;
53267;SDS011;39156;51.176;6.738;2023-06-22T12:15:19;39.40;;;36.75;;
53267;SDS011;39156;51.176;6.738;2023-06-22T12:17:45;41.08;;;38.22;;
53267;SDS011;39156;51.176;6.738;2023-06-22T12:20:13;37.55;;;34.95;;
53267;SDS011;39156;51.176;6.738;2023-06-22T12:22:38;37.28;;;35.00;;
53267;SDS011;39156;51.176;6.738;2023-06-22T12:25:06;40.55;;;37.72;;
53267;SDS011;39156;51.176;6.738;2023-06-22T12:27:33;41.63;;;38.85;;
53267;SDS011;39156;51.176;6.738;2023-06-22T12:32:25;42.72;;;39.83;;
53267;SDS011;39156;51.176;6.738;2023-06-22T12:34:51;43.50;;;40.50;;
53267;SDS011;39156;51.176;6.738;2023-06-22T12:37:16;41.72;;;38.85;;
53267;SDS011;39156;51.176;6.738;2023-06-22T12:39:43;42.53;;;39.55;;
53267;SDS011;39156;51.176;6.738;2023-06-22T12:42:09;42.38;;;39.53;;
53267;SDS011;39156;51.176;6.738;2023-06-22T12:44:37;40.92;;;38.22;;
53267;SDS011;39156;51.176;6.738;2023-06-22T12:47:07;41.03;;;38.35;;
53267;SDS011;39156;51.176;6.738;2023-06-22T12:49:36;40.75;;;38.13;;
53267;SDS011;39156;51.176;6.738;2023-06-22T12:52:02;40.60;;;37.90;;
53267;SDS011;39156;51.176;6.738;2023-06-22T12:54:33;40.65;;;37.90;;
53267;SDS011;39156;51.176;6.738;2023-06-22T12:56:58;42.05;;;39.30;;
53267;SDS011;39156;51.176;6.738;2023-06-22T12:59:24;40.97;;;38.17;;
53267;SDS011;39156;51.176;6.738;2023-06-22T13:01:50;42.00;;;39.30;;
53267;SDS011;39156;51.176;6.738;2023-06-22T13:04:15;41.00;;;38.30;;
53267;SDS011;39156;51.176;6.738;2023-06-22T13:06:43;41.97;;;39.22;;
53267;SDS011;39156;51.176;6.738;2023-06-22T13:09:13;42.83;;;39.75;;
53267;SDS011;39156;51.176;6.738;2023-06-22T13:11:40;43.17;;;40.08;;
53267;SDS011;39156;51.176;6.738;2023-06-22T13:14:09;42.33;;;39.63;;
53267;SDS011;39156;51.176;6.738;2023-06-22T13:16:35;42.92;;;39.92;;
53267;SDS011;39156;51.176;6.738;2023-06-22T13:19:01;41.85;;;39.13;;
53267;SDS011;39156;51.176;6.738;2023-06-22T13:21:27;43.97;;;40.88;;
53267;SDS011;39156;51.176;6.738;2023-06-22T13:23:53;43.72;;;40.72;;
53267;SDS011;39156;51.176;6.738;2023-06-22T13:26:18;43.85;;;40.88;;
53267;SDS011;39156;51.176;6.738;2023-06-22T13:28:46;41.47;;;38.67;;
53267;SDS011;39156;51.176;6.738;2023-06-22T13:31:11;42.78;;;39.85;;
53267;SDS011;39156;51.176;6.738;2023-06-22T13:33:37;42.80;;;39.90;;
53267;SDS011;39156;51.176;6.738;2023-06-22T13:36:05;42.15;;;39.45;;
53267;SDS011;39156;51.176;6.738;2023-06-22T13:38:32;42.53;;;39.63;;
53267;SDS011;39156;51.176;6.738;2023-06-22T13:41:03;42.38;;;39.63;;
53267;SDS011;39156;51.176;6.738;2023-06-22T13:45:55;43.88;;;40.78;;
53267;SDS011;39156;51.176;6.738;2023-06-22T13:48:20;44.42;;;41.53;;
53267;SDS011;39156;51.176;6.738;2023-06-22T13:50:48;44.38;;;41.05;;
53267;SDS011;39156;51.176;6.738;2023-06-22T13:53:13;43.22;;;40.38;;
53267;SDS011;39156;51.176;6.738;2023-06-22T13:55:40;43.30;;;40.40;;
53267;SDS011;39156;51.176;6.738;2023-06-22T13:58:06;43.25;;;40.53;;
53267;SDS011;39156;51.176;6.738;2023-06-22T14:00:32;45.63;;;42.53;;
53267;SDS011;39156;51.176;6.738;2023-06-22T14:02:58;43.15;;;39.67;;
53267;SDS011;39156;51.176;6.738;2023-06-22T14:05:23;45.55;;;42.33;;
53267;SDS011;39156;51.176;6.738;2023-06-22T14:07:52;44.15;;;41.05;;
53267;SDS011;39156;51.176;6.738;2023-06-22T14:10:17;42.95;;;40.08;;
53267;SDS011;39156;51.176;6.738;2023-06-22T14:12:43;42.72;;;39.60;;
53267;SDS011;39156;51.176;6.738;2023-06-22T14:15:09;45.35;;;42.25;;
53267;SDS011;39156;51.176;6.738;2023-06-22T14:17:35;42.42;;;39.58;;
53267;SDS011;39156;51.176;6.738;2023-06-22T14:20:01;41.20;;;38.60;;
53267;SDS011;39156;51.176;6.738;2023-06-22T14:22:28;40.28;;;37.58;;
53267;SDS011;39156;51.176;6.738;2023-06-22T14:24:54;41.55;;;38.85;;
53267;SDS011;39156;51.176;6.738;2023-06-22T14:27:22;42.30;;;39.45;;
53267;SDS011;39156;51.176;6.738;2023-06-22T14:29:48;41.45;;;38.53;;
53267;SDS011;39156;51.176;6.738;2023-06-22T14:32:14;42.13;;;39.20;;
53267;SDS011;39156;51.176;6.738;2023-06-22T14:34:39;40.88;;;38.28;;
53267;SDS011;39156;51.176;6.738;2023-06-22T14:37:06;43.47;;;40.60;;
53267;SDS011;39156;51.176;6.738;2023-06-22T14:39:32;43.45;;;40.55;;
53267;SDS011;39156;51.176;6.738;2023-06-22T14:41:58;40.90;;;38.30;;
53267;SDS011;39156;51.176;6.738;2023-06-22T14:44:25;44.25;;;41.20;;
53267;SDS011;39156;51.176;6.738;2023-06-22T14:46:54;40.10;;;37.30;;
53267;SDS011;39156;51.176;6.738;2023-06-22T14:49:20;42.05;;;39.20;;
53267;SDS011;39156;51.176;6.738;2023-06-22T14:51:46;41.22;;;38.63;;
53267;SDS011;39156;51.176;6.738;2023-06-22T14:54:12;41.83;;;38.67;;
53267;SDS011;39156;51.176;6.738;2023-06-22T14:56:37;42.88;;;40.08;;
53267;SDS011;39156;51.176;6.738;2023-06-22T14:59:03;42.97;;;40.17;;
53267;SDS011;39156;51.176;6.738;2023-06-22T15:01:29;42.20;;;39.30;;
53267;SDS011;39156;51.176;6.738;2023-06-22T15:03:54;42.42;;;39.58;;